createdAt,value
2019-04-22T00:00:40.734Z,2.36
2019-04-22T00:01:43.508Z,2.40
2019-04-22T00:02:52.600Z,2.39
2019-04-22T00:04:00.502Z,2.33
2019-04-22T00:05:07.291Z,2.39
2019-04-22T00:06:22.517Z,2.42
2019-04-22T00:07:34.236Z,2.50
2019-04-22T00:08:36.210Z,2.38
2019-04-22T00:09:41.816Z,2.30
2019-04-22T00:10:52.675Z,2.34
2019-04-22T00:11:49.399Z,2.32
2019-04-22T00:12:57.406Z,2.30
2019-04-22T00:13:58.154Z,2.40
2019-04-22T00:14:55.505Z,2.34
2019-04-22T00:15:59.270Z,2.49
2019-04-22T00:17:16.658Z,2.38
2019-04-22T00:18:13.424Z,2.31
2019-04-22T00:20:22.692Z,2.44
2019-04-22T00:21:25.739Z,2.34
2019-04-22T00:22:30.208Z,2.49
2019-04-22T00:23:36.945Z,2.45
2019-04-22T00:24:36.642Z,2.44
2019-04-22T00:25:42.105Z,2.39
2019-04-22T00:26:51.313Z,2.40
2019-04-22T00:28:59.291Z,2.36
2019-04-22T00:31:06.708Z,2.33
2019-04-22T00:32:05.659Z,2.37
2019-04-22T00:33:11.676Z,2.38
2019-04-22T00:34:14.394Z,2.30
2019-04-22T00:35:18.248Z,2.40
2019-04-22T00:36:23.752Z,2.37
2019-04-22T00:37:28.806Z,2.19
2019-04-22T00:39:55.100Z,2.21
2019-04-22T00:40:39.745Z,2.20
2019-04-22T00:41:48.755Z,2.23
2019-04-22T00:42:53.053Z,2.17
2019-04-22T00:43:56.775Z,2.22
2019-04-22T00:45:00.802Z,2.14
2019-04-22T00:46:02.925Z,2.17
2019-04-22T00:47:07.267Z,2.11
2019-04-22T00:48:16.435Z,2.12
2019-04-22T00:49:59.831Z,2.05
2019-04-22T00:51:29.049Z,2.03
2019-04-22T00:52:28.124Z,2.13
2019-04-22T00:53:36.026Z,2.04
2019-04-22T00:54:42.208Z,2.08
2019-04-22T00:55:40.402Z,2.10
2019-04-22T00:56:42.208Z,2.05
2019-04-22T00:57:52.024Z,1.99
2019-04-22T00:58:54.745Z,1.94
2019-04-22T00:59:58.232Z,1.97
2019-04-22T01:01:03.366Z,1.96
2019-04-22T01:02:06.798Z,2.09
2019-04-22T01:03:19.699Z,2.12
2019-04-22T01:04:23.124Z,2.11
2019-04-22T01:05:21.353Z,2.13
2019-04-22T01:07:27.118Z,2.13
2019-04-22T01:08:43.193Z,2.09
2019-04-22T01:09:41.852Z,2.10
2019-04-22T01:11:44.999Z,1.94
2019-04-22T01:12:50.002Z,1.93
2019-04-22T01:13:55.675Z,1.87
2019-04-22T01:15:01.107Z,1.96
2019-04-22T01:16:09.464Z,1.95
2019-04-22T01:17:06.396Z,1.97
2019-04-22T01:18:13.173Z,1.97
2019-04-22T01:19:17.711Z,1.97
2019-04-22T01:20:37.830Z,1.94
2019-04-22T01:21:28.917Z,1.97
2019-04-22T01:22:38.376Z,1.98
2019-04-22T01:23:27.818Z,1.99
2019-04-22T01:24:37.104Z,2.00
2019-04-22T01:25:39.228Z,1.96
2019-04-22T01:26:36.287Z,1.93
2019-04-22T01:27:41.829Z,1.90
2019-04-22T01:28:42.269Z,1.90
2019-04-22T01:29:46.735Z,1.87
2019-04-22T01:30:46.904Z,1.84
2019-04-22T01:31:43.843Z,1.82
2019-04-22T01:32:49.332Z,1.81
2019-04-22T01:34:08.179Z,1.76
2019-04-22T01:35:08.458Z,1.77
2019-04-22T01:36:13.694Z,1.78
2019-04-22T01:37:20.275Z,1.71
2019-04-22T01:38:23.354Z,1.73
2019-04-22T01:39:40.362Z,1.74
2019-04-22T01:40:45.490Z,1.73
2019-04-22T01:42:16.868Z,1.72
2019-04-22T01:42:56.020Z,1.71
2019-04-22T01:44:03.278Z,1.74
2019-04-22T01:45:03.346Z,1.73
2019-04-22T01:46:03.006Z,1.73
2019-04-22T01:47:06.608Z,1.71
2019-04-22T01:48:10.475Z,1.72
2019-04-22T01:49:18.922Z,1.68
2019-04-22T01:50:24.045Z,1.69
2019-04-22T01:51:35.457Z,1.68
2019-04-22T01:52:23.736Z,1.67
2019-04-22T01:53:33.727Z,1.67
2019-04-22T01:54:45.493Z,1.66
2019-04-22T01:55:39.873Z,1.65
2019-04-22T01:56:51.350Z,1.65
2019-04-22T01:57:47.512Z,1.65
2019-04-22T01:58:48.243Z,1.64
2019-04-22T01:59:45.825Z,1.64
2019-04-22T02:01:00.234Z,1.63
2019-04-22T02:02:07.781Z,1.62
2019-04-22T02:03:14.110Z,1.61
2019-04-22T02:04:24.048Z,1.60
2019-04-22T02:05:17.702Z,1.60
2019-04-22T02:06:27.690Z,1.61
2019-04-22T02:07:23.550Z,1.61
2019-04-22T02:08:37.940Z,1.61
2019-04-22T02:09:53.425Z,1.62
2019-04-22T02:10:39.153Z,1.64
2019-04-22T02:11:45.503Z,1.63
2019-04-22T02:12:46.996Z,1.62
2019-04-22T02:13:52.346Z,1.57
2019-04-22T02:14:50.366Z,1.63
2019-04-22T02:15:58.777Z,1.64
2019-04-22T02:18:18.339Z,1.66
2019-04-22T02:19:20.719Z,1.65
2019-04-22T02:20:16.887Z,1.66
2019-04-22T02:21:20.441Z,1.65
2019-04-22T02:22:42.838Z,1.66
2019-04-22T02:24:41.203Z,1.65
2019-04-22T02:25:42.789Z,1.64
2019-04-22T02:26:40.179Z,1.66
2019-04-22T02:27:46.105Z,1.66
2019-04-22T02:28:47.981Z,1.66
2019-04-22T02:29:51.976Z,1.65
2019-04-22T02:31:22.977Z,1.65
2019-04-22T02:32:24.764Z,1.65
2019-04-22T02:33:40.929Z,1.64
2019-04-22T02:34:37.471Z,1.64
2019-04-22T02:35:36.580Z,1.63
2019-04-22T02:37:35.950Z,1.62
2019-04-22T02:39:34.485Z,1.62
2019-04-22T02:40:56.239Z,1.61
2019-04-22T02:41:41.553Z,1.61
2019-04-22T02:42:58.105Z,1.62
2019-04-22T02:44:04.074Z,1.60
2019-04-22T02:44:53.612Z,1.64
2019-04-22T02:47:15.566Z,1.65
2019-04-22T02:48:26.065Z,1.63
2019-04-22T02:49:22.659Z,1.64
2019-04-22T02:51:26.171Z,1.62
2019-04-22T02:52:31.014Z,1.63
2019-04-22T02:54:11.636Z,1.59
2019-04-22T02:55:44.269Z,1.56
2019-04-22T02:59:03.545Z,1.54
2019-04-22T03:01:05.423Z,1.54
2019-04-22T03:02:07.709Z,1.58
2019-04-22T03:04:20.635Z,1.57
2019-04-22T03:05:27.901Z,1.55
2019-04-22T03:06:32.830Z,1.51
2019-04-22T03:07:25.880Z,1.57
2019-04-22T03:09:40.383Z,1.52
2019-04-22T03:10:49.363Z,1.53
2019-04-22T03:12:49.008Z,1.45
2019-04-22T03:14:01.281Z,1.48
2019-04-22T03:15:07.378Z,1.44
2019-04-22T03:16:08.344Z,1.44
2019-04-22T03:17:11.333Z,1.42
2019-04-22T03:18:09.747Z,1.44
2019-04-22T03:20:14.226Z,1.42
2019-04-22T03:21:29.236Z,1.39
2019-04-22T03:22:21.045Z,1.45
2019-04-22T03:27:40.141Z,1.47
2019-04-22T03:29:13.337Z,1.38
2019-04-22T03:30:16.342Z,1.32
2019-04-22T03:32:33.494Z,1.26
2019-04-22T03:36:58.139Z,1.30
2019-04-22T03:37:34.022Z,1.33
2019-04-22T03:38:45.672Z,1.33
2019-04-22T03:39:45.444Z,1.34
2019-04-22T03:42:05.245Z,1.33
2019-04-22T03:44:15.088Z,1.31
2019-04-22T03:45:04.292Z,1.27
2019-04-22T03:45:51.289Z,1.24
2019-04-22T03:50:22.054Z,1.19
2019-04-22T03:52:24.958Z,1.15
2019-04-22T03:54:39.172Z,1.18
2019-04-22T03:55:41.332Z,1.15
2019-04-22T03:57:18.344Z,1.18
2019-04-22T03:57:49.786Z,1.15
2019-04-22T03:58:57.000Z,1.17
2019-04-22T03:59:59.357Z,1.16
2019-04-22T04:01:06.808Z,1.16
2019-04-22T04:04:19.155Z,1.16
2019-04-22T04:08:55.470Z,1.16
2019-04-22T04:09:49.323Z,1.18
2019-04-22T04:11:53.956Z,1.18
2019-04-22T04:13:52.179Z,1.18
2019-04-22T04:15:55.755Z,1.17
2019-04-22T04:18:01.318Z,1.23
2019-04-22T04:19:13.846Z,1.24
2019-04-22T04:20:21.394Z,1.27
2019-04-22T04:22:54.077Z,1.33
2019-04-22T04:23:37.815Z,1.35
2019-04-22T04:24:46.298Z,1.36
2019-04-22T04:25:42.214Z,1.34
2019-04-22T04:27:04.111Z,1.28
2019-04-22T04:29:05.449Z,1.26
2019-04-22T04:31:02.652Z,1.36
2019-04-22T04:32:25.138Z,1.36
2019-04-22T04:33:05.078Z,1.41
2019-04-22T04:34:15.169Z,1.40
2019-04-22T04:35:23.500Z,1.47
2019-04-22T04:36:28.326Z,1.45
2019-04-22T04:37:40.677Z,1.47
2019-04-22T04:38:32.158Z,1.45
2019-04-22T04:39:40.537Z,1.48
2019-04-22T04:40:37.708Z,1.55
2019-04-22T04:42:46.217Z,1.51
2019-04-22T04:43:59.665Z,1.52
2019-04-22T04:45:11.034Z,1.50
2019-04-22T04:46:06.887Z,1.51
2019-04-22T04:47:17.668Z,1.50
2019-04-22T04:48:02.416Z,1.55
2019-04-22T04:49:19.197Z,1.57
2019-04-22T04:50:22.607Z,1.55
2019-04-22T04:52:39.819Z,1.57
2019-04-22T04:53:53.139Z,1.58
2019-04-22T04:54:35.960Z,1.56
2019-04-22T04:56:40.336Z,1.57
2019-04-22T04:57:56.926Z,1.55
2019-04-22T04:59:11.955Z,1.57
2019-04-22T05:00:22.061Z,1.60
2019-04-22T05:02:06.684Z,1.59
2019-04-22T05:05:20.305Z,1.67
2019-04-22T05:06:21.448Z,1.68
2019-04-22T05:07:36.185Z,1.72
2019-04-22T05:08:54.379Z,1.76
2019-04-22T05:09:26.317Z,1.78
2019-04-22T05:12:03.554Z,1.87
2019-04-22T05:14:55.118Z,2.00
2019-04-22T05:16:11.193Z,2.02
2019-04-22T05:17:18.342Z,2.10
2019-04-22T05:18:06.095Z,2.16
2019-04-22T05:21:16.324Z,2.20
2019-04-22T05:22:20.771Z,2.23
2019-04-22T05:23:33.340Z,2.25
2019-04-22T05:25:28.563Z,2.33
2019-04-22T05:26:46.628Z,2.39
2019-04-22T05:27:40.034Z,2.47
2019-04-22T05:28:43.345Z,2.55
2019-04-22T05:30:57.199Z,2.59
2019-04-22T05:30:58.959Z,2.61
2019-04-22T05:32:04.565Z,2.74
2019-04-22T05:33:01.586Z,2.70
2019-04-22T05:34:08.127Z,2.79
2019-04-22T05:36:18.622Z,2.91
2019-04-22T05:37:22.796Z,3.03
2019-04-22T05:38:27.976Z,3.16
2019-04-22T05:39:22.607Z,3.43
2019-04-22T05:40:41.128Z,3.71
2019-04-22T05:41:35.316Z,3.90
2019-04-22T05:42:34.507Z,4.07
2019-04-22T05:43:42.604Z,4.21
2019-04-22T05:44:50.015Z,4.48
2019-04-22T05:45:54.233Z,4.69
2019-04-22T05:46:58.887Z,4.85
2019-04-22T05:49:08.211Z,5.06
2019-04-22T05:50:08.192Z,5.01
2019-04-22T05:51:21.832Z,4.97
2019-04-22T05:52:14.818Z,5.07
2019-04-22T05:53:21.235Z,4.99
2019-04-22T05:54:27.782Z,4.94
2019-04-22T05:55:36.283Z,4.95
2019-04-22T05:56:37.143Z,4.93
2019-04-22T05:57:38.857Z,4.98
2019-04-22T05:58:53.313Z,5.01
2019-04-22T05:59:52.215Z,5.03
2019-04-22T06:01:23.635Z,5.15
2019-04-22T06:03:15.346Z,5.08
2019-04-22T06:05:13.902Z,5.18
2019-04-22T06:07:25.302Z,5.10
2019-04-22T06:08:25.648Z,5.10
2019-04-22T06:09:30.204Z,5.17
2019-04-22T06:10:39.455Z,5.22
2019-04-22T06:11:44.784Z,5.23
2019-04-22T06:12:32.672Z,5.11
2019-04-22T06:13:38.896Z,5.25
2019-04-22T06:14:54.255Z,4.67
2019-04-22T06:15:54.372Z,4.97
2019-04-22T06:17:10.799Z,5.18
2019-04-22T06:18:09.586Z,4.99
2019-04-22T06:20:10.484Z,4.81
2019-04-22T06:21:22.562Z,4.79
2019-04-22T06:22:34.316Z,4.93
2019-04-22T06:24:27.530Z,4.96
2019-04-22T06:25:55.018Z,5.04
2019-04-22T06:26:55.934Z,5.06
2019-04-22T06:27:42.841Z,5.14
2019-04-22T06:28:48.437Z,4.28
2019-04-22T06:29:46.339Z,4.30
2019-04-22T06:33:02.767Z,4.55
2019-04-22T06:34:17.650Z,4.86
2019-04-22T06:35:23.293Z,4.36
2019-04-22T06:36:24.519Z,4.72
2019-04-22T06:37:32.242Z,4.15
2019-04-22T06:38:37.634Z,4.25
2019-04-22T06:39:38.258Z,4.06
2019-04-22T06:40:42.287Z,3.71
2019-04-22T06:41:51.651Z,3.84
2019-04-22T06:42:52.392Z,3.88
2019-04-22T06:43:56.200Z,3.72
2019-04-22T06:45:02.733Z,3.85
2019-04-22T06:46:04.221Z,3.91
2019-04-22T06:47:05.265Z,3.64
2019-04-22T06:48:15.341Z,3.77
2019-04-22T06:49:20.734Z,3.68
2019-04-22T06:50:16.608Z,3.77
2019-04-22T06:51:20.080Z,3.88
2019-04-22T06:52:22.073Z,3.92
2019-04-22T06:53:29.685Z,4.16
2019-04-22T06:54:32.915Z,4.12
2019-04-22T06:55:41.294Z,3.99
2019-04-22T06:56:43.126Z,4.18
2019-04-22T06:57:46.087Z,4.01
2019-04-22T06:58:55.233Z,3.97
2019-04-22T06:59:59.040Z,4.35
2019-04-22T07:01:06.151Z,4.47
2019-04-22T07:03:33.305Z,4.26
2019-04-22T07:04:14.467Z,4.03
2019-04-22T07:05:19.739Z,4.08
2019-04-22T07:06:33.433Z,4.37
2019-04-22T07:07:29.717Z,4.32
2019-04-22T07:09:02.441Z,4.07
2019-04-22T07:10:44.854Z,4.06
2019-04-22T07:11:47.519Z,4.21
2019-04-22T07:12:49.279Z,4.36
2019-04-22T07:14:00.040Z,4.56
2019-04-22T07:14:53.485Z,4.64
2019-04-22T07:15:57.468Z,4.51
2019-04-22T07:17:01.867Z,4.65
2019-04-22T07:18:11.209Z,4.79
2019-04-22T07:19:18.425Z,5.07
2019-04-22T07:20:17.299Z,4.84
2019-04-22T07:21:23.680Z,5.02
2019-04-22T07:22:29.298Z,4.78
2019-04-22T07:23:35.677Z,4.83
2019-04-22T07:25:41.332Z,4.88
2019-04-22T07:26:46.945Z,4.99
2019-04-22T07:27:46.077Z,4.82
2019-04-22T07:28:50.457Z,4.12
2019-04-22T07:30:02.028Z,4.23
2019-04-22T07:31:05.045Z,4.14
2019-04-22T07:32:06.829Z,4.02
2019-04-22T07:34:24.062Z,4.11
2019-04-22T07:35:22.834Z,4.10
2019-04-22T07:37:39.104Z,4.00
2019-04-22T07:39:35.615Z,3.95
2019-04-22T07:40:43.879Z,4.32
2019-04-22T07:41:47.584Z,3.54
2019-04-22T07:42:49.093Z,3.84
2019-04-22T07:44:10.281Z,3.75
2019-04-22T07:44:59.344Z,3.95
2019-04-22T07:46:00.348Z,4.14
2019-04-22T07:47:18.461Z,3.97
2019-04-22T07:48:24.077Z,4.29
2019-04-22T07:49:18.825Z,4.18
2019-04-22T07:51:37.495Z,4.29
2019-04-22T07:52:27.775Z,3.94
2019-04-22T07:53:28.986Z,4.18
2019-04-22T07:54:43.146Z,4.07
2019-04-22T07:55:40.441Z,4.09
2019-04-22T07:56:43.892Z,4.23
2019-04-22T07:57:52.345Z,4.27
2019-04-22T07:58:56.874Z,4.28
2019-04-22T08:00:02.979Z,4.03
2019-04-22T08:01:08.803Z,4.12
2019-04-22T08:02:12.808Z,4.11
2019-04-22T08:04:30.287Z,4.15
2019-04-22T08:05:24.704Z,4.21
2019-04-22T08:06:26.208Z,4.14
2019-04-22T08:07:30.357Z,4.21
2019-04-22T08:08:35.616Z,4.19
2019-04-22T08:09:44.560Z,4.09
2019-04-22T08:10:48.621Z,4.51
2019-04-22T08:11:51.220Z,4.50
2019-04-22T08:12:55.016Z,4.37
2019-04-22T08:13:54.619Z,4.19
2019-04-22T08:15:00.344Z,4.18
2019-04-22T08:16:04.513Z,4.22
2019-04-22T08:17:36.268Z,4.47
2019-04-22T08:18:22.065Z,4.89
2019-04-22T08:19:23.569Z,5.00
2019-04-22T08:20:23.742Z,5.13
2019-04-22T08:21:22.340Z,5.41
2019-04-22T08:22:27.317Z,5.42
2019-04-22T08:23:37.433Z,5.46
2019-04-22T08:24:45.404Z,5.64
2019-04-22T08:25:43.135Z,5.06
2019-04-22T08:26:51.335Z,5.05
2019-04-22T08:27:51.901Z,4.81
2019-04-22T08:28:57.921Z,4.44
2019-04-22T08:30:06.482Z,4.33
2019-04-22T08:31:07.622Z,4.26
2019-04-22T08:32:28.614Z,4.31
2019-04-22T08:33:15.962Z,4.73
2019-04-22T08:34:20.944Z,4.51
2019-04-22T08:35:29.243Z,4.51
2019-04-22T08:36:54.056Z,4.63
2019-04-22T08:38:43.651Z,4.13
2019-04-22T08:39:54.619Z,4.01
2019-04-22T08:40:47.261Z,3.68
2019-04-22T08:42:05.429Z,3.74
2019-04-22T08:43:09.062Z,3.85
2019-04-22T08:44:10.561Z,3.92
2019-04-22T08:45:18.250Z,3.95
2019-04-22T08:46:13.473Z,3.65
2019-04-22T08:47:21.827Z,3.93
2019-04-22T08:48:18.627Z,4.17
2019-04-22T08:49:16.489Z,4.21
2019-04-22T08:50:38.848Z,3.77
2019-04-22T08:52:34.695Z,3.71
2019-04-22T08:53:40.347Z,3.78
2019-04-22T08:54:44.315Z,4.12
2019-04-22T08:56:58.186Z,3.59
2019-04-22T08:59:07.008Z,4.29
2019-04-22T09:00:02.927Z,4.66
2019-04-22T09:01:14.670Z,4.74
2019-04-22T09:02:19.940Z,4.75
2019-04-22T09:03:15.968Z,4.55
2019-04-22T09:04:16.211Z,4.18
2019-04-22T09:05:42.057Z,4.20
2019-04-22T09:06:47.856Z,4.75
2019-04-22T09:07:36.789Z,4.35
2019-04-22T09:08:40.655Z,3.77
2019-04-22T09:09:48.952Z,3.82
2019-04-22T09:10:51.897Z,3.59
2019-04-22T09:11:54.763Z,3.52
2019-04-22T09:14:06.195Z,3.48
2019-04-22T09:15:02.446Z,3.51
2019-04-22T09:16:10.640Z,3.35
2019-04-22T09:17:14.781Z,3.57
2019-04-22T09:18:23.225Z,3.95
2019-04-22T09:19:23.837Z,4.03
2019-04-22T09:20:26.801Z,4.06
2019-04-22T09:21:32.615Z,3.98
2019-04-22T09:22:38.669Z,3.85
2019-04-22T09:23:50.588Z,4.03
2019-04-22T09:25:51.147Z,4.68
2019-04-22T09:26:54.449Z,4.26
2019-04-22T09:27:57.184Z,4.25
2019-04-22T09:29:05.036Z,4.73
2019-04-22T09:30:06.151Z,4.89
2019-04-22T09:31:11.735Z,5.05
2019-04-22T09:32:34.769Z,4.83
2019-04-22T09:33:20.627Z,4.88
2019-04-22T09:34:30.395Z,4.86
2019-04-22T09:35:39.198Z,5.04
2019-04-22T09:36:34.202Z,4.71
2019-04-22T09:37:55.979Z,4.62
2019-04-22T09:38:41.184Z,4.37
2019-04-22T09:39:54.746Z,4.83
2019-04-22T09:40:52.638Z,4.74
2019-04-22T09:41:57.237Z,4.84
2019-04-22T09:43:08.452Z,5.02
2019-04-22T09:44:02.369Z,4.49
2019-04-22T09:45:11.250Z,4.63
2019-04-22T09:46:15.126Z,4.81
2019-04-22T09:47:19.249Z,5.05
2019-04-22T09:48:33.543Z,5.04
2019-04-22T09:50:40.449Z,5.21
2019-04-22T09:51:38.919Z,5.16
2019-04-22T09:52:45.654Z,5.15
2019-04-22T09:53:57.872Z,5.15
2019-04-22T09:54:59.863Z,5.23
2019-04-22T09:55:56.859Z,5.50
2019-04-22T09:56:56.506Z,5.70
2019-04-22T09:58:05.428Z,5.61
2019-04-22T09:59:07.497Z,4.88
2019-04-22T10:02:31.799Z,4.70
2019-04-22T10:03:29.661Z,4.16
2019-04-22T10:04:33.051Z,4.23
2019-04-22T10:05:32.797Z,4.21
2019-04-22T10:06:53.117Z,4.34
2019-04-22T10:07:43.249Z,4.20
2019-04-22T10:09:02.104Z,4.11
2019-04-22T10:09:59.696Z,4.33
2019-04-22T10:11:00.723Z,4.27
2019-04-22T10:11:58.680Z,4.40
2019-04-22T10:13:06.378Z,4.38
2019-04-22T10:14:29.049Z,4.65
2019-04-22T10:15:13.516Z,4.63
2019-04-22T10:16:27.480Z,4.81
2019-04-22T10:17:17.517Z,5.20
2019-04-22T10:18:28.907Z,4.83
2019-04-22T10:19:34.982Z,4.92
2019-04-22T10:20:38.258Z,4.76
2019-04-22T10:21:44.789Z,4.82
2019-04-22T10:22:46.018Z,4.99
2019-04-22T10:23:53.369Z,5.15
2019-04-22T10:24:55.290Z,5.34
2019-04-22T10:26:02.547Z,5.83
2019-04-22T10:27:02.771Z,4.94
2019-04-22T10:28:08.977Z,4.54
2019-04-22T10:29:14.097Z,4.45
2019-04-22T10:30:39.142Z,4.83
2019-04-22T10:31:28.088Z,4.86
2019-04-22T10:32:27.839Z,4.97
2019-04-22T10:33:21.945Z,5.01
2019-04-22T10:34:16.864Z,4.89
2019-04-22T10:35:17.148Z,4.99
2019-04-22T10:36:17.178Z,4.86
2019-04-22T10:37:23.400Z,4.52
2019-04-22T10:38:24.637Z,4.76
2019-04-22T10:39:41.189Z,4.56
2019-04-22T10:40:34.574Z,4.25
2019-04-22T10:41:38.956Z,4.79
2019-04-22T10:42:43.409Z,4.71
2019-04-22T10:43:47.604Z,4.62
2019-04-22T10:44:51.894Z,4.37
2019-04-22T10:45:55.525Z,4.21
2019-04-22T10:47:00.094Z,4.23
2019-04-22T10:48:04.181Z,4.21
2019-04-22T10:49:08.636Z,4.28
2019-04-22T10:50:14.270Z,4.24
2019-04-22T10:51:18.903Z,4.07
2019-04-22T10:52:21.699Z,4.45
2019-04-22T10:53:26.153Z,4.37
2019-04-22T10:54:31.477Z,4.08
2019-04-22T10:55:35.183Z,4.10
2019-04-22T10:56:39.278Z,4.11
2019-04-22T10:57:44.431Z,4.35
2019-04-22T10:58:48.924Z,3.79
2019-04-22T10:59:52.458Z,4.03
2019-04-22T11:00:58.165Z,4.15
2019-04-22T11:02:01.459Z,4.47
2019-04-22T11:03:06.497Z,4.27
2019-04-22T11:04:11.199Z,4.30
2019-04-22T11:05:14.574Z,4.15
2019-04-22T11:06:19.240Z,4.35
2019-04-22T11:07:31.081Z,4.05
2019-04-22T11:08:35.010Z,4.14
2019-04-22T11:09:34.097Z,4.81
2019-04-22T11:10:50.560Z,4.11
2019-04-22T11:11:48.750Z,4.47
2019-04-22T11:12:45.272Z,4.19
2019-04-22T11:13:49.696Z,4.02
2019-04-22T11:14:53.966Z,4.20
2019-04-22T11:15:58.512Z,4.20
2019-04-22T11:17:05.302Z,4.13
2019-04-22T11:18:07.450Z,4.45
2019-04-22T11:19:11.880Z,4.53
2019-04-22T11:20:15.840Z,4.85
2019-04-22T11:21:20.366Z,4.64
2019-04-22T11:22:29.986Z,4.66
2019-04-22T11:23:29.114Z,4.78
2019-04-22T11:24:34.690Z,4.71
2019-04-22T11:25:37.882Z,4.70
2019-04-22T11:26:43.156Z,4.38
2019-04-22T11:27:47.226Z,4.46
2019-04-22T11:28:51.754Z,4.48
2019-04-22T11:29:55.530Z,4.34
2019-04-22T11:31:00.768Z,4.59
2019-04-22T11:32:04.397Z,4.17
2019-04-22T11:33:08.722Z,3.70
2019-04-22T11:34:13.069Z,3.96
2019-04-22T11:35:17.415Z,3.62
2019-04-22T11:36:21.841Z,3.79
2019-04-22T11:37:26.226Z,4.02
2019-04-22T11:38:30.946Z,4.07
2019-04-22T11:39:36.684Z,4.21
2019-04-22T11:40:43.614Z,4.21
2019-04-22T11:41:44.383Z,4.58
2019-04-22T11:42:48.340Z,4.70
2019-04-22T11:43:53.593Z,4.81
2019-04-22T11:44:57.212Z,4.29
2019-04-22T11:46:01.396Z,4.22
2019-04-22T11:47:05.805Z,4.50
2019-04-22T11:48:11.211Z,4.14
2019-04-22T11:49:16.094Z,4.50
2019-04-22T11:50:19.893Z,4.52
2019-04-22T11:51:24.354Z,4.34
2019-04-22T11:52:28.816Z,4.09
2019-04-22T11:53:32.092Z,4.25
2019-04-22T11:54:36.896Z,4.36
2019-04-22T11:55:44.760Z,4.50
2019-04-22T11:56:47.461Z,4.63
2019-04-22T11:57:51.990Z,4.82
2019-04-22T11:58:57.048Z,5.39
2019-04-22T12:00:01.031Z,5.27
2019-04-22T12:01:06.422Z,4.74
2019-04-22T12:02:10.873Z,4.81
2019-04-22T12:03:14.738Z,4.25
2019-04-22T12:04:18.123Z,4.42
2019-04-22T12:05:23.777Z,4.29
2019-04-22T12:06:28.119Z,4.43
2019-04-22T12:07:34.464Z,4.36
2019-04-22T12:08:37.271Z,4.74
2019-04-22T12:09:39.953Z,4.31
2019-04-22T12:10:51.594Z,4.46
2019-04-22T12:11:49.515Z,4.59
2019-04-22T12:12:53.921Z,4.89
2019-04-22T12:13:57.947Z,4.77
2019-04-22T12:15:01.998Z,4.83
2019-04-22T12:16:07.513Z,4.94
2019-04-22T12:17:11.262Z,4.70
2019-04-22T12:18:15.370Z,5.01
2019-04-22T12:19:20.823Z,4.76
2019-04-22T12:20:25.381Z,4.83
2019-04-22T12:21:29.011Z,4.74
2019-04-22T12:22:33.974Z,4.62
2019-04-22T12:23:37.197Z,4.43
2019-04-22T12:24:42.521Z,4.37
2019-04-22T12:25:52.490Z,4.73
2019-04-22T12:26:50.675Z,4.71
2019-04-22T12:27:55.133Z,4.96
2019-04-22T12:28:59.330Z,4.98
2019-04-22T12:30:03.309Z,4.82
2019-04-22T12:31:07.616Z,4.78
2019-04-22T12:32:11.962Z,4.78
2019-04-22T12:33:17.011Z,4.94
2019-04-22T12:34:21.511Z,4.68
2019-04-22T12:35:26.287Z,4.81
2019-04-22T12:36:30.707Z,5.08
2019-04-22T12:37:42.936Z,5.19
2019-04-22T12:38:39.915Z,4.75
2019-04-22T12:39:43.476Z,4.41
2019-04-22T12:40:53.174Z,4.53
2019-04-22T12:41:52.154Z,4.69
2019-04-22T12:42:57.517Z,4.69
2019-04-22T12:44:01.015Z,4.81
2019-04-22T12:45:04.771Z,5.00
2019-04-22T12:46:10.146Z,5.13
2019-04-22T12:47:14.890Z,4.68
2019-04-22T12:48:19.093Z,4.51
2019-04-22T12:49:22.514Z,4.63
2019-04-22T12:50:31.550Z,5.00
2019-04-22T12:51:31.395Z,4.72
2019-04-22T12:52:43.702Z,4.81
2019-04-22T12:53:40.278Z,4.79
2019-04-22T12:54:44.615Z,4.48
2019-04-22T12:55:50.186Z,4.82
2019-04-22T12:56:53.431Z,4.88
2019-04-22T12:58:00.800Z,4.99
2019-04-22T12:59:03.693Z,5.40
2019-04-22T13:00:07.853Z,5.34
2019-04-22T13:01:10.984Z,5.16
2019-04-22T13:02:15.538Z,4.89
2019-04-22T13:03:20.379Z,5.06
2019-04-22T13:04:25.256Z,5.24
2019-04-22T13:05:29.195Z,4.41
2019-04-22T13:06:32.653Z,4.63
2019-04-22T13:07:38.000Z,4.49
2019-04-22T13:08:41.467Z,4.42
2019-04-22T13:09:45.786Z,4.53
2019-04-22T13:10:58.401Z,4.96
2019-04-22T13:11:55.060Z,4.86
2019-04-22T13:12:58.924Z,5.05
2019-04-22T13:14:03.362Z,4.70
2019-04-22T13:15:08.006Z,4.83
2019-04-22T13:16:13.356Z,4.71
2019-04-22T13:17:17.095Z,4.99
2019-04-22T13:18:29.393Z,5.15
2019-04-22T13:19:28.014Z,4.80
2019-04-22T13:20:30.471Z,5.07
2019-04-22T13:21:33.997Z,5.04
2019-04-22T13:22:38.867Z,4.96
2019-04-22T13:23:44.414Z,5.22
2019-04-22T13:24:47.982Z,5.41
2019-04-22T13:25:52.654Z,5.06
2019-04-22T13:26:57.067Z,5.37
2019-04-22T13:28:00.996Z,5.07
2019-04-22T13:29:05.285Z,4.83
2019-04-22T13:30:10.123Z,5.05
2019-04-22T13:31:13.980Z,4.92
2019-04-22T13:32:18.631Z,5.01
2019-04-22T13:33:23.187Z,4.94
2019-04-22T13:34:33.704Z,5.15
2019-04-22T13:35:31.847Z,5.26
2019-04-22T13:36:36.649Z,4.97
2019-04-22T13:37:41.089Z,4.97
2019-04-22T13:38:44.939Z,5.15
2019-04-22T13:39:49.279Z,4.89
2019-04-22T13:41:07.268Z,5.00
2019-04-22T13:42:02.290Z,5.09
2019-04-22T13:43:02.768Z,4.80
2019-04-22T13:44:07.062Z,4.84
2019-04-22T13:45:11.626Z,5.13
2019-04-22T13:46:16.640Z,5.32
2019-04-22T13:47:34.885Z,5.13
2019-04-22T13:48:38.734Z,5.30
2019-04-22T13:50:16.695Z,5.46
2019-04-22T13:51:15.132Z,5.38
2019-04-22T13:52:15.562Z,5.06
2019-04-22T13:53:18.424Z,5.09
2019-04-22T13:54:42.485Z,5.02
2019-04-22T13:55:16.220Z,5.12
2019-04-22T13:56:13.892Z,5.30
2019-04-22T13:57:22.950Z,5.57
2019-04-22T13:58:15.830Z,5.77
2019-04-22T13:59:18.351Z,5.83
2019-04-22T14:00:13.596Z,5.97
2019-04-22T14:01:16.564Z,6.09
2019-04-22T14:02:20.652Z,6.20
2019-04-22T14:03:24.999Z,6.44
2019-04-22T14:04:30.459Z,6.71
2019-04-22T14:05:34.944Z,6.21
2019-04-22T14:06:38.831Z,6.03
2019-04-22T14:07:43.155Z,6.20
2019-04-22T14:08:47.189Z,6.15
2019-04-22T14:09:51.253Z,6.39
2019-04-22T14:11:00.373Z,6.47
2019-04-22T14:12:05.218Z,6.68
2019-04-22T14:13:05.640Z,6.34
2019-04-22T14:14:12.733Z,6.19
2019-04-22T14:15:15.870Z,6.25
2019-04-22T14:16:19.581Z,5.81
2019-04-22T14:17:25.020Z,5.82
2019-04-22T14:18:28.727Z,5.91
2019-04-22T14:19:33.940Z,6.36
2019-04-22T14:20:36.908Z,6.22
2019-04-22T14:21:44.295Z,6.18
2019-04-22T14:22:46.307Z,6.10
2019-04-22T14:23:50.941Z,6.22
2019-04-22T14:24:54.546Z,6.18
2019-04-22T14:25:59.134Z,6.17
2019-04-22T14:27:17.572Z,6.41
2019-04-22T14:28:12.043Z,6.42
2019-04-22T14:29:11.711Z,6.57
2019-04-22T14:30:16.801Z,6.32
2019-04-22T14:31:20.503Z,6.03
2019-04-22T14:32:27.989Z,6.56
2019-04-22T14:33:30.126Z,6.28
2019-04-22T14:34:34.280Z,6.05
2019-04-22T14:35:38.458Z,6.24
2019-04-22T14:36:43.501Z,6.27
2019-04-22T14:37:47.817Z,6.45
2019-04-22T14:38:52.333Z,6.21
2019-04-22T14:39:55.782Z,6.18
2019-04-22T14:41:00.813Z,6.40
2019-04-22T14:42:21.611Z,5.96
2019-04-22T14:43:31.713Z,6.04
2019-04-22T14:45:50.682Z,6.26
2019-04-22T14:46:49.287Z,6.01
2019-04-22T14:47:53.956Z,6.01
2019-04-22T14:49:01.309Z,6.08
2019-04-22T14:49:59.089Z,6.26
2019-04-22T14:50:55.998Z,6.47
2019-04-22T14:52:08.326Z,6.32
2019-04-22T14:53:08.067Z,6.50
2019-04-22T14:54:12.436Z,6.50
2019-04-22T14:55:06.062Z,6.35
2019-04-22T14:56:02.287Z,6.46
2019-04-22T14:57:05.308Z,6.72
2019-04-22T14:58:10.950Z,6.84
2019-04-22T14:59:14.018Z,7.10
2019-04-22T15:00:19.762Z,7.32
2019-04-22T15:01:22.720Z,7.20
2019-04-22T15:02:27.856Z,6.94
2019-04-22T15:03:31.653Z,7.24
2019-04-22T15:04:37.272Z,7.27
2019-04-22T15:05:40.185Z,7.15
2019-04-22T15:06:47.092Z,7.08
2019-04-22T15:07:49.897Z,7.25
2019-04-22T15:08:54.560Z,7.10
2019-04-22T15:09:57.793Z,7.28
2019-04-22T15:11:02.194Z,7.43
2019-04-22T15:12:16.528Z,7.28
2019-04-22T15:13:11.543Z,7.18
2019-04-22T15:14:15.311Z,7.02
2019-04-22T15:15:19.656Z,6.93
2019-04-22T15:16:23.896Z,6.86
2019-04-22T15:17:29.180Z,6.99
2019-04-22T15:18:33.549Z,6.99
2019-04-22T15:19:38.023Z,6.88
2019-04-22T15:20:41.618Z,6.99
2019-04-22T15:21:46.970Z,7.05
2019-04-22T15:22:50.635Z,7.02
2019-04-22T15:23:54.421Z,7.34
2019-04-22T15:24:58.754Z,7.73
2019-04-22T15:26:04.565Z,7.86
2019-04-22T15:27:08.772Z,8.06
2019-04-22T15:28:13.318Z,8.04
2019-04-22T15:29:17.520Z,8.00
2019-04-22T15:30:21.455Z,7.96
2019-04-22T15:31:24.972Z,8.02
2019-04-22T15:32:29.626Z,8.11
2019-04-22T15:33:35.132Z,8.25
2019-04-22T15:34:39.389Z,8.26
2019-04-22T15:35:43.249Z,8.05
2019-04-22T15:36:48.230Z,8.13
2019-04-22T15:37:51.210Z,8.03
2019-04-22T15:38:55.436Z,8.10
2019-04-22T15:40:00.593Z,8.12
2019-04-22T15:41:05.076Z,7.98
2019-04-22T15:42:14.577Z,7.85
2019-04-22T15:43:13.040Z,7.87
2019-04-22T15:44:17.722Z,7.78
2019-04-22T15:45:23.507Z,7.81
2019-04-22T15:46:26.038Z,7.82
2019-04-22T15:47:31.092Z,7.80
2019-04-22T15:48:35.986Z,7.71
2019-04-22T15:49:40.248Z,7.64